sensor_id;sensor_type;location;lat;lon;timestamp;P1;durP1;ratioP1;P2;durP2;ratioP2
261;SDS011;114;48.260;10.988;2023-12-20T00:01:13;4.70;;;2.90;;
261;SDS011;114;48.260;10.988;2023-12-20T00:03:40;1.87;;;1.77;;
261;SDS011;114;48.260;10.988;2023-12-20T00:06:05;2.63;;;2.43;;
261;SDS011;114;48.260;10.988;2023-12-20T00:08:33;2.70;;;2.50;;
261;SDS011;114;48.260;10.988;2023-12-20T00:11:00;2.03;;;1.93;;
261;SDS011;114;48.260;10.988;2023-12-20T00:13:25;2.23;;;2.03;;
261;SDS011;114;48.260;10.988;2023-12-20T00:15:51;2.77;;;2.40;;
261;SDS011;114;48.260;10.988;2023-12-20T00:18:17;3.00;;;2.80;;
261;SDS011;114;48.260;10.988;2023-12-20T00:20:42;2.43;;;2.20;;
261;SDS011;114;48.260;10.988;2023-12-20T00:23:08;2.70;;;2.43;;
261;SDS011;114;48.260;10.988;2023-12-20T00:25:34;2.03;;;1.93;;
261;SDS011;114;48.260;10.988;2023-12-20T00:28:00;1.63;;;1.53;;
261;SDS011;114;48.260;10.988;2023-12-20T00:30:26;2.10;;;2.00;;
261;SDS011;114;48.260;10.988;2023-12-20T00:32:51;2.50;;;2.30;;
261;SDS011;114;48.260;10.988;2023-12-20T00:35:17;2.27;;;2.17;;
261;SDS011;114;48.260;10.988;2023-12-20T00:37:43;5.63;;;1.90;;
261;SDS011;114;48.260;10.988;2023-12-20T00:40:09;2.03;;;1.93;;
261;SDS011;114;48.260;10.988;2023-12-20T00:42:35;1.97;;;1.83;;
261;SDS011;114;48.260;10.988;2023-12-20T00:45:02;1.83;;;1.73;;
261;SDS011;114;48.260;10.988;2023-12-20T00:47:31;4.50;;;1.97;;
261;SDS011;114;48.260;10.988;2023-12-20T00:49:59;1.37;;;1.30;;
261;SDS011;114;48.260;10.988;2023-12-20T00:52:24;1.43;;;1.43;;
261;SDS011;114;48.260;10.988;2023-12-20T00:54:50;1.60;;;1.50;;
261;SDS011;114;48.260;10.988;2023-12-20T00:57:15;1.40;;;1.30;;
261;SDS011;114;48.260;10.988;2023-12-20T00:59:41;2.10;;;1.90;;
261;SDS011;114;48.260;10.988;2023-12-20T01:02:07;1.83;;;1.73;;
261;SDS011;114;48.260;10.988;2023-12-20T01:04:34;5.03;;;2.07;;
261;SDS011;114;48.260;10.988;2023-12-20T01:06:59;1.50;;;1.40;;
261;SDS011;114;48.260;10.988;2023-12-20T01:09:25;1.60;;;1.50;;
261;SDS011;114;48.260;10.988;2023-12-20T01:11:54;1.80;;;1.70;;
261;SDS011;114;48.260;10.988;2023-12-20T01:14:20;1.90;;;1.43;;
261;SDS011;114;48.260;10.988;2023-12-20T01:16:47;1.37;;;1.27;;
261;SDS011;114;48.260;10.988;2023-12-20T01:19:13;1.70;;;1.60;;
261;SDS011;114;48.260;10.988;2023-12-20T01:21:39;4.47;;;1.70;;
261;SDS011;114;48.260;10.988;2023-12-20T01:24:06;1.80;;;1.70;;
261;SDS011;114;48.260;10.988;2023-12-20T01:26:33;1.60;;;1.50;;
261;SDS011;114;48.260;10.988;2023-12-20T01:28:58;1.67;;;1.57;;
261;SDS011;114;48.260;10.988;2023-12-20T01:31:24;1.43;;;1.43;;
261;SDS011;114;48.260;10.988;2023-12-20T01:33:50;1.93;;;1.43;;
261;SDS011;114;48.260;10.988;2023-12-20T01:36:15;1.40;;;1.30;;
261;SDS011;114;48.260;10.988;2023-12-20T01:38:41;1.60;;;1.50;;
261;SDS011;114;48.260;10.988;2023-12-20T01:41:07;1.50;;;1.40;;
261;SDS011;114;48.260;10.988;2023-12-20T01:43:32;1.03;;;1.03;;
261;SDS011;114;48.260;10.988;2023-12-20T01:45:58;1.60;;;1.50;;
261;SDS011;114;48.260;10.988;2023-12-20T01:48:25;1.63;;;1.53;;
261;SDS011;114;48.260;10.988;2023-12-20T01:50:52;1.70;;;1.60;;
261;SDS011;114;48.260;10.988;2023-12-20T01:53:20;1.30;;;1.13;;
261;SDS011;114;48.260;10.988;2023-12-20T01:55:49;1.93;;;1.70;;
261;SDS011;114;48.260;10.988;2023-12-20T01:58:17;1.07;;;1.07;;
261;SDS011;114;48.260;10.988;2023-12-20T02:00:44;1.10;;;1.10;;
261;SDS011;114;48.260;10.988;2023-12-20T02:03:10;1.63;;;1.53;;
261;SDS011;114;48.260;10.988;2023-12-20T02:05:38;1.20;;;1.10;;
261;SDS011;114;48.260;10.988;2023-12-20T02:08:04;1.30;;;1.20;;
261;SDS011;114;48.260;10.988;2023-12-20T02:10:30;1.30;;;1.30;;
261;SDS011;114;48.260;10.988;2023-12-20T02:12:56;1.20;;;1.20;;
261;SDS011;114;48.260;10.988;2023-12-20T02:15:22;1.17;;;1.07;;
261;SDS011;114;48.260;10.988;2023-12-20T02:17:48;3.57;;;1.13;;
261;SDS011;114;48.260;10.988;2023-12-20T02:20:14;1.30;;;1.20;;
261;SDS011;114;48.260;10.988;2023-12-20T02:22:40;0.93;;;0.93;;
261;SDS011;114;48.260;10.988;2023-12-20T02:25:06;1.10;;;1.00;;
261;SDS011;114;48.260;10.988;2023-12-20T02:27:32;1.00;;;1.00;;
261;SDS011;114;48.260;10.988;2023-12-20T02:29:59;0.60;;;0.60;;
261;SDS011;114;48.260;10.988;2023-12-20T02:32:24;1.60;;;1.50;;
261;SDS011;114;48.260;10.988;2023-12-20T02:34:51;0.80;;;0.80;;
261;SDS011;114;48.260;10.988;2023-12-20T02:37:17;1.40;;;0.80;;
261;SDS011;114;48.260;10.988;2023-12-20T02:39:42;1.13;;;1.03;;
261;SDS011;114;48.260;10.988;2023-12-20T02:42:08;1.40;;;1.10;;
261;SDS011;114;48.260;10.988;2023-12-20T02:44:34;0.87;;;0.87;;
261;SDS011;114;48.260;10.988;2023-12-20T02:47:01;1.83;;;1.13;;
261;SDS011;114;48.260;10.988;2023-12-20T02:49:27;1.17;;;1.07;;
261;SDS011;114;48.260;10.988;2023-12-20T02:51:53;1.10;;;1.00;;
261;SDS011;114;48.260;10.988;2023-12-20T02:54:19;3.73;;;1.20;;
261;SDS011;114;48.260;10.988;2023-12-20T02:56:44;0.80;;;0.80;;
261;SDS011;114;48.260;10.988;2023-12-20T02:59:10;0.90;;;0.90;;
261;SDS011;114;48.260;10.988;2023-12-20T03:01:37;1.23;;;1.23;;
261;SDS011;114;48.260;10.988;2023-12-20T03:04:09;0.90;;;0.90;;
261;SDS011;114;48.260;10.988;2023-12-20T03:06:34;1.00;;;0.97;;
261;SDS011;114;48.260;10.988;2023-12-20T03:09:00;0.63;;;0.63;;
261;SDS011;114;48.260;10.988;2023-12-20T03:11:28;1.07;;;1.07;;
261;SDS011;114;48.260;10.988;2023-12-20T03:13:57;0.90;;;0.90;;
261;SDS011;114;48.260;10.988;2023-12-20T03:16:23;1.30;;;1.20;;
261;SDS011;114;48.260;10.988;2023-12-20T03:18:49;1.23;;;1.13;;
261;SDS011;114;48.260;10.988;2023-12-20T03:21:15;0.90;;;0.90;;
261;SDS011;114;48.260;10.988;2023-12-20T03:23:40;3.90;;;1.23;;
261;SDS011;114;48.260;10.988;2023-12-20T03:26:08;1.20;;;1.20;;
261;SDS011;114;48.260;10.988;2023-12-20T03:28:34;1.70;;;1.60;;
261;SDS011;114;48.260;10.988;2023-12-20T03:31:00;1.13;;;1.13;;
261;SDS011;114;48.260;10.988;2023-12-20T03:33:27;1.47;;;1.47;;
261;SDS011;114;48.260;10.988;2023-12-20T03:35:53;1.13;;;1.13;;
261;SDS011;114;48.260;10.988;2023-12-20T03:38:20;1.70;;;1.60;;
261;SDS011;114;48.260;10.988;2023-12-20T03:40:46;1.70;;;1.60;;
261;SDS011;114;48.260;10.988;2023-12-20T03:43:12;1.50;;;1.40;;
261;SDS011;114;48.260;10.988;2023-12-20T03:45:37;1.57;;;1.47;;
261;SDS011;114;48.260;10.988;2023-12-20T03:48:03;1.80;;;1.70;;
261;SDS011;114;48.260;10.988;2023-12-20T03:50:29;1.80;;;1.70;;
261;SDS011;114;48.260;10.988;2023-12-20T03:52:56;1.63;;;1.53;;
261;SDS011;114;48.260;10.988;2023-12-20T03:55:22;1.83;;;1.73;;
261;SDS011;114;48.260;10.988;2023-12-20T03:57:48;1.90;;;1.80;;
261;SDS011;114;48.260;10.988;2023-12-20T04:00:14;2.70;;;1.73;;
261;SDS011;114;48.260;10.988;2023-12-20T04:02:40;1.77;;;1.67;;
261;SDS011;114;48.260;10.988;2023-12-20T04:05:07;1.90;;;1.80;;
261;SDS011;114;48.260;10.988;2023-12-20T04:07:34;2.13;;;2.03;;
261;SDS011;114;48.260;10.988;2023-12-20T04:10:01;2.03;;;1.93;;
261;SDS011;114;48.260;10.988;2023-12-20T04:12:29;1.60;;;1.50;;
261;SDS011;114;48.260;10.988;2023-12-20T04:14:55;1.80;;;1.70;;
261;SDS011;114;48.260;10.988;2023-12-20T04:17:21;2.27;;;2.07;;
261;SDS011;114;48.260;10.988;2023-12-20T04:19:49;6.57;;;3.07;;
261;SDS011;114;48.260;10.988;2023-12-20T04:22:16;2.60;;;2.40;;
261;SDS011;114;48.260;10.988;2023-12-20T04:24:45;2.17;;;2.07;;
261;SDS011;114;48.260;10.988;2023-12-20T04:27:11;4.87;;;2.53;;
261;SDS011;114;48.260;10.988;2023-12-20T04:29:38;2.90;;;2.70;;
261;SDS011;114;48.260;10.988;2023-12-20T04:32:04;3.00;;;2.83;;
261;SDS011;114;48.260;10.988;2023-12-20T04:34:30;2.87;;;2.77;;
261;SDS011;114;48.260;10.988;2023-12-20T04:36:55;2.50;;;2.40;;
261;SDS011;114;48.260;10.988;2023-12-20T04:39:21;3.20;;;3.00;;
261;SDS011;114;48.260;10.988;2023-12-20T04:41:47;4.37;;;3.97;;
261;SDS011;114;48.260;10.988;2023-12-20T04:44:13;3.70;;;3.47;;
261;SDS011;114;48.260;10.988;2023-12-20T04:46:39;3.63;;;3.43;;
261;SDS011;114;48.260;10.988;2023-12-20T04:49:04;4.37;;;3.97;;
261;SDS011;114;48.260;10.988;2023-12-20T04:51:32;3.23;;;3.13;;
261;SDS011;114;48.260;10.988;2023-12-20T04:53:58;4.00;;;3.70;;
261;SDS011;114;48.260;10.988;2023-12-20T04:56:25;3.83;;;3.63;;
261;SDS011;114;48.260;10.988;2023-12-20T04:58:51;4.43;;;3.70;;
261;SDS011;114;48.260;10.988;2023-12-20T05:01:16;4.23;;;3.83;;
261;SDS011;114;48.260;10.988;2023-12-20T05:03:42;3.07;;;2.87;;
261;SDS011;114;48.260;10.988;2023-12-20T05:06:09;3.23;;;3.03;;
261;SDS011;114;48.260;10.988;2023-12-20T05:08:34;3.67;;;3.47;;
261;SDS011;114;48.260;10.988;2023-12-20T05:11:00;4.17;;;3.97;;
261;SDS011;114;48.260;10.988;2023-12-20T05:13:26;3.30;;;3.10;;
261;SDS011;114;48.260;10.988;2023-12-20T05:15:52;4.03;;;3.50;;
261;SDS011;114;48.260;10.988;2023-12-20T05:18:18;4.43;;;4.13;;
261;SDS011;114;48.260;10.988;2023-12-20T05:20:43;4.97;;;4.40;;
261;SDS011;114;48.260;10.988;2023-12-20T05:23:09;4.50;;;4.10;;
261;SDS011;114;48.260;10.988;2023-12-20T05:25:35;5.17;;;4.80;;
261;SDS011;114;48.260;10.988;2023-12-20T05:28:00;4.80;;;4.40;;
261;SDS011;114;48.260;10.988;2023-12-20T05:30:26;4.27;;;3.97;;
261;SDS011;114;48.260;10.988;2023-12-20T05:32:51;4.70;;;4.40;;
261;SDS011;114;48.260;10.988;2023-12-20T05:35:17;4.60;;;4.30;;
261;SDS011;114;48.260;10.988;2023-12-20T05:37:43;4.60;;;4.30;;
261;SDS011;114;48.260;10.988;2023-12-20T05:40:08;4.00;;;3.80;;
261;SDS011;114;48.260;10.988;2023-12-20T05:42:36;4.37;;;4.07;;
261;SDS011;114;48.260;10.988;2023-12-20T05:45:02;3.93;;;3.63;;
261;SDS011;114;48.260;10.988;2023-12-20T05:47:29;3.83;;;3.63;;
261;SDS011;114;48.260;10.988;2023-12-20T05:49:54;4.20;;;3.90;;
261;SDS011;114;48.260;10.988;2023-12-20T05:52:20;8.63;;;4.63;;
261;SDS011;114;48.260;10.988;2023-12-20T05:54:45;3.87;;;3.57;;
261;SDS011;114;48.260;10.988;2023-12-20T05:57:11;3.40;;;3.20;;
261;SDS011;114;48.260;10.988;2023-12-20T05:59:37;3.77;;;3.47;;
261;SDS011;114;48.260;10.988;2023-12-20T06:02:03;4.20;;;3.90;;
261;SDS011;114;48.260;10.988;2023-12-20T06:04:29;3.57;;;3.27;;
261;SDS011;114;48.260;10.988;2023-12-20T06:06:55;4.00;;;3.70;;
261;SDS011;114;48.260;10.988;2023-12-20T06:09:21;4.00;;;3.70;;
261;SDS011;114;48.260;10.988;2023-12-20T06:11:46;4.37;;;4.07;;
261;SDS011;114;48.260;10.988;2023-12-20T06:14:12;3.93;;;3.57;;
261;SDS011;114;48.260;10.988;2023-12-20T06:16:38;3.90;;;3.70;;
261;SDS011;114;48.260;10.988;2023-12-20T06:19:03;3.60;;;3.40;;
261;SDS011;114;48.260;10.988;2023-12-20T06:21:29;5.13;;;4.73;;
261;SDS011;114;48.260;10.988;2023-12-20T06:23:54;4.50;;;4.20;;
261;SDS011;114;48.260;10.988;2023-12-20T06:26:20;4.07;;;3.77;;
261;SDS011;114;48.260;10.988;2023-12-20T06:28:46;5.00;;;4.60;;
261;SDS011;114;48.260;10.988;2023-12-20T06:31:11;3.47;;;3.20;;
261;SDS011;114;48.260;10.988;2023-12-20T06:33:37;4.43;;;4.10;;
261;SDS011;114;48.260;10.988;2023-12-20T06:36:05;4.40;;;4.10;;
261;SDS011;114;48.260;10.988;2023-12-20T06:38:31;4.17;;;3.87;;
261;SDS011;114;48.260;10.988;2023-12-20T06:40:57;4.27;;;3.97;;
261;SDS011;114;48.260;10.988;2023-12-20T06:43:23;4.23;;;3.93;;
261;SDS011;114;48.260;10.988;2023-12-20T06:45:49;3.93;;;3.73;;
261;SDS011;114;48.260;10.988;2023-12-20T06:48:15;4.23;;;3.50;;
261;SDS011;114;48.260;10.988;2023-12-20T06:50:41;3.77;;;3.47;;
261;SDS011;114;48.260;10.988;2023-12-20T06:53:07;3.40;;;3.20;;
261;SDS011;114;48.260;10.988;2023-12-20T06:55:35;3.30;;;3.00;;
261;SDS011;114;48.260;10.988;2023-12-20T06:58:02;3.50;;;3.30;;
261;SDS011;114;48.260;10.988;2023-12-20T07:00:30;3.53;;;3.33;;
261;SDS011;114;48.260;10.988;2023-12-20T07:02:55;3.53;;;3.23;;
261;SDS011;114;48.260;10.988;2023-12-20T07:05:21;3.63;;;3.40;;
261;SDS011;114;48.260;10.988;2023-12-20T07:07:47;4.53;;;4.23;;
261;SDS011;114;48.260;10.988;2023-12-20T07:10:13;3.13;;;2.93;;
261;SDS011;114;48.260;10.988;2023-12-20T07:12:39;3.20;;;2.90;;
261;SDS011;114;48.260;10.988;2023-12-20T07:15:05;4.13;;;2.70;;
261;SDS011;114;48.260;10.988;2023-12-20T07:17:32;3.17;;;2.97;;
261;SDS011;114;48.260;10.988;2023-12-20T07:19:58;3.27;;;3.07;;
261;SDS011;114;48.260;10.988;2023-12-20T07:22:28;2.93;;;2.83;;
261;SDS011;114;48.260;10.988;2023-12-20T07:24:57;3.13;;;2.93;;
261;SDS011;114;48.260;10.988;2023-12-20T07:27:24;2.50;;;2.30;;
261;SDS011;114;48.260;10.988;2023-12-20T07:29:49;3.03;;;2.83;;
261;SDS011;114;48.260;10.988;2023-12-20T07:32:15;3.23;;;3.03;;
261;SDS011;114;48.260;10.988;2023-12-20T07:34:41;3.37;;;3.17;;
261;SDS011;114;48.260;10.988;2023-12-20T07:37:06;2.70;;;2.60;;
261;SDS011;114;48.260;10.988;2023-12-20T07:39:35;3.40;;;3.20;;
261;SDS011;114;48.260;10.988;2023-12-20T07:42:00;3.77;;;3.47;;
261;SDS011;114;48.260;10.988;2023-12-20T07:44:26;2.80;;;2.70;;
261;SDS011;114;48.260;10.988;2023-12-20T07:46:53;2.03;;;1.93;;
261;SDS011;114;48.260;10.988;2023-12-20T07:49:18;4.20;;;1.70;;
261;SDS011;114;48.260;10.988;2023-12-20T07:51:44;3.77;;;2.50;;
261;SDS011;114;48.260;10.988;2023-12-20T07:54:10;2.50;;;2.30;;
261;SDS011;114;48.260;10.988;2023-12-20T07:56:37;2.90;;;2.80;;
261;SDS011;114;48.260;10.988;2023-12-20T07:59:02;3.30;;;3.10;;
261;SDS011;114;48.260;10.988;2023-12-20T08:01:28;3.97;;;3.10;;
261;SDS011;114;48.260;10.988;2023-12-20T08:03:53;2.30;;;2.20;;
261;SDS011;114;48.260;10.988;2023-12-20T08:06:19;2.00;;;1.90;;
261;SDS011;114;48.260;10.988;2023-12-20T08:08:44;2.30;;;2.20;;
261;SDS011;114;48.260;10.988;2023-12-20T08:11:10;2.37;;;2.13;;
261;SDS011;114;48.260;10.988;2023-12-20T08:13:36;2.13;;;2.03;;
261;SDS011;114;48.260;10.988;2023-12-20T08:16:01;2.40;;;1.87;;
261;SDS011;114;48.260;10.988;2023-12-20T08:18:28;1.23;;;1.23;;
261;SDS011;114;48.260;10.988;2023-12-20T08:20:54;2.23;;;2.13;;
261;SDS011;114;48.260;10.988;2023-12-20T08:23:20;1.77;;;1.77;;
261;SDS011;114;48.260;10.988;2023-12-20T08:25:46;2.33;;;2.23;;
261;SDS011;114;48.260;10.988;2023-12-20T08:28:13;2.30;;;2.20;;
261;SDS011;114;48.260;10.988;2023-12-20T08:30:39;2.10;;;2.00;;
261;SDS011;114;48.260;10.988;2023-12-20T08:33:05;2.37;;;2.20;;
261;SDS011;114;48.260;10.988;2023-12-20T08:35:36;3.23;;;3.07;;
261;SDS011;114;48.260;10.988;2023-12-20T08:38:02;2.20;;;2.10;;
261;SDS011;114;48.260;10.988;2023-12-20T08:40:29;4.27;;;3.97;;
261;SDS011;114;48.260;10.988;2023-12-20T08:42:55;3.40;;;3.20;;
261;SDS011;114;48.260;10.988;2023-12-20T08:45:20;3.50;;;3.30;;
261;SDS011;114;48.260;10.988;2023-12-20T08:47:47;5.83;;;4.10;;
261;SDS011;114;48.260;10.988;2023-12-20T08:50:12;2.77;;;2.63;;
261;SDS011;114;48.260;10.988;2023-12-20T08:52:38;4.00;;;3.70;;
261;SDS011;114;48.260;10.988;2023-12-20T08:55:04;4.20;;;3.70;;
261;SDS011;114;48.260;10.988;2023-12-20T08:57:30;8.80;;;5.00;;
261;SDS011;114;48.260;10.988;2023-12-20T08:59:56;7.53;;;5.30;;
261;SDS011;114;48.260;10.988;2023-12-20T09:02:22;5.00;;;4.60;;
261;SDS011;114;48.260;10.988;2023-12-20T09:04:48;7.70;;;6.33;;
261;SDS011;114;48.260;10.988;2023-12-20T09:07:26;3.10;;;2.90;;
261;SDS011;114;48.260;10.988;2023-12-20T09:09:54;7.87;;;6.43;;
261;SDS011;114;48.260;10.988;2023-12-20T09:12:20;5.40;;;4.90;;
261;SDS011;114;48.260;10.988;2023-12-20T09:14:46;3.20;;;3.00;;
261;SDS011;114;48.260;10.988;2023-12-20T09:17:12;6.07;;;5.10;;
261;SDS011;114;48.260;10.988;2023-12-20T09:19:38;3.77;;;3.43;;
261;SDS011;114;48.260;10.988;2023-12-20T09:22:04;6.60;;;3.33;;
261;SDS011;114;48.260;10.988;2023-12-20T09:24:30;3.50;;;3.30;;
261;SDS011;114;48.260;10.988;2023-12-20T09:26:56;4.43;;;4.17;;
261;SDS011;114;48.260;10.988;2023-12-20T09:29:22;3.27;;;3.00;;
261;SDS011;114;48.260;10.988;2023-12-20T09:31:50;4.20;;;3.83;;
261;SDS011;114;48.260;10.988;2023-12-20T09:34:16;3.67;;;3.47;;
261;SDS011;114;48.260;10.988;2023-12-20T09:36:45;5.97;;;5.37;;
261;SDS011;114;48.260;10.988;2023-12-20T09:39:15;3.77;;;3.57;;
261;SDS011;114;48.260;10.988;2023-12-20T09:41:53;4.43;;;4.13;;
261;SDS011;114;48.260;10.988;2023-12-20T09:44:28;6.63;;;4.47;;
261;SDS011;114;48.260;10.988;2023-12-20T09:46:55;4.60;;;4.20;;
261;SDS011;114;48.260;10.988;2023-12-20T09:49:21;4.83;;;4.43;;
261;SDS011;114;48.260;10.988;2023-12-20T09:51:47;4.53;;;4.23;;
261;SDS011;114;48.260;10.988;2023-12-20T09:54:16;4.80;;;4.50;;
261;SDS011;114;48.260;10.988;2023-12-20T09:56:43;4.63;;;4.33;;
261;SDS011;114;48.260;10.988;2023-12-20T09:59:12;4.93;;;4.57;;
261;SDS011;114;48.260;10.988;2023-12-20T10:01:40;4.20;;;3.90;;
261;SDS011;114;48.260;10.988;2023-12-20T10:04:07;4.30;;;4.00;;
261;SDS011;114;48.260;10.988;2023-12-20T10:06:52;4.03;;;3.80;;
261;SDS011;114;48.260;10.988;2023-12-20T10:09:18;3.67;;;3.47;;
261;SDS011;114;48.260;10.988;2023-12-20T10:11:43;3.97;;;3.67;;
261;SDS011;114;48.260;10.988;2023-12-20T10:14:10;4.30;;;4.00;;
261;SDS011;114;48.260;10.988;2023-12-20T10:16:36;4.17;;;3.77;;
261;SDS011;114;48.260;10.988;2023-12-20T10:19:02;10.23;;;7.90;;
261;SDS011;114;48.260;10.988;2023-12-20T10:21:27;13.10;;;11.80;;
261;SDS011;114;48.260;10.988;2023-12-20T10:23:56;3.73;;;3.53;;
261;SDS011;114;48.260;10.988;2023-12-20T10:26:23;4.07;;;3.77;;
261;SDS011;114;48.260;10.988;2023-12-20T10:28:53;3.37;;;3.17;;
261;SDS011;114;48.260;10.988;2023-12-20T10:31:26;2.93;;;2.83;;
261;SDS011;114;48.260;10.988;2023-12-20T10:33:57;2.57;;;2.47;;
261;SDS011;114;48.260;10.988;2023-12-20T10:36:24;3.07;;;2.70;;
261;SDS011;114;48.260;10.988;2023-12-20T10:38:54;2.40;;;2.30;;
261;SDS011;114;48.260;10.988;2023-12-20T10:41:27;1.93;;;1.80;;
261;SDS011;114;48.260;10.988;2023-12-20T10:43:58;2.23;;;2.13;;
261;SDS011;114;48.260;10.988;2023-12-20T10:46:28;1.60;;;1.50;;
261;SDS011;114;48.260;10.988;2023-12-20T10:48:55;2.23;;;2.13;;
261;SDS011;114;48.260;10.988;2023-12-20T10:51:22;1.90;;;1.80;;
261;SDS011;114;48.260;10.988;2023-12-20T10:53:49;1.80;;;1.70;;
261;SDS011;114;48.260;10.988;2023-12-20T10:56:18;2.17;;;2.07;;
261;SDS011;114;48.260;10.988;2023-12-20T10:58:46;4.67;;;2.60;;
261;SDS011;114;48.260;10.988;2023-12-20T11:01:15;2.03;;;1.93;;
261;SDS011;114;48.260;10.988;2023-12-20T11:03:48;1.60;;;1.50;;
261;SDS011;114;48.260;10.988;2023-12-20T11:06:25;2.20;;;2.10;;
261;SDS011;114;48.260;10.988;2023-12-20T11:08:53;2.67;;;2.57;;
261;SDS011;114;48.260;10.988;2023-12-20T11:11:59;1.67;;;1.57;;
261;SDS011;114;48.260;10.988;2023-12-20T11:17:09;1.90;;;1.80;;
261;SDS011;114;48.260;10.988;2023-12-20T11:22:27;2.50;;;1.40;;
261;SDS011;114;48.260;10.988;2023-12-20T11:24:58;2.27;;;2.07;;
261;SDS011;114;48.260;10.988;2023-12-20T11:27:33;2.70;;;2.50;;
261;SDS011;114;48.260;10.988;2023-12-20T11:30:00;2.60;;;2.40;;
261;SDS011;114;48.260;10.988;2023-12-20T11:32:33;2.17;;;2.07;;
261;SDS011;114;48.260;10.988;2023-12-20T11:35:00;1.73;;;1.63;;
261;SDS011;114;48.260;10.988;2023-12-20T11:37:35;1.70;;;1.60;;
261;SDS011;114;48.260;10.988;2023-12-20T11:40:03;1.10;;;1.10;;
261;SDS011;114;48.260;10.988;2023-12-20T11:42:42;1.50;;;1.40;;
261;SDS011;114;48.260;10.988;2023-12-20T11:45:15;1.20;;;1.17;;
261;SDS011;114;48.260;10.988;2023-12-20T11:47:45;1.50;;;1.37;;
261;SDS011;114;48.260;10.988;2023-12-20T11:50:11;1.33;;;1.33;;
261;SDS011;114;48.260;10.988;2023-12-20T11:52:37;1.00;;;1.00;;
261;SDS011;114;48.260;10.988;2023-12-20T11:55:04;1.40;;;1.30;;
261;SDS011;114;48.260;10.988;2023-12-20T11:57:31;2.00;;;1.40;;
261;SDS011;114;48.260;10.988;2023-12-20T11:59:57;1.20;;;1.10;;
261;SDS011;114;48.260;10.988;2023-12-20T12:02:23;1.60;;;1.00;;
261;SDS011;114;48.260;10.988;2023-12-20T12:04:49;1.27;;;1.17;;
261;SDS011;114;48.260;10.988;2023-12-20T12:07:15;1.17;;;1.07;;
261;SDS011;114;48.260;10.988;2023-12-20T12:09:42;0.80;;;0.80;;
261;SDS011;114;48.260;10.988;2023-12-20T12:12:08;1.30;;;1.20;;
261;SDS011;114;48.260;10.988;2023-12-20T12:14:34;1.57;;;0.90;;
261;SDS011;114;48.260;10.988;2023-12-20T12:17:03;3.53;;;1.10;;
261;SDS011;114;48.260;10.988;2023-12-20T12:19:29;1.37;;;1.27;;
261;SDS011;114;48.260;10.988;2023-12-20T12:24:45;1.80;;;1.33;;
261;SDS011;114;48.260;10.988;2023-12-20T12:27:15;1.87;;;1.20;;
261;SDS011;114;48.260;10.988;2023-12-20T12:29:42;1.13;;;1.00;;
261;SDS011;114;48.260;10.988;2023-12-20T12:32:29;1.00;;;0.83;;
261;SDS011;114;48.260;10.988;2023-12-20T12:34:55;1.57;;;1.10;;
261;SDS011;114;48.260;10.988;2023-12-20T12:37:22;1.63;;;1.40;;
261;SDS011;114;48.260;10.988;2023-12-20T12:39:49;4.37;;;1.67;;
261;SDS011;114;48.260;10.988;2023-12-20T12:42:15;3.40;;;1.40;;
261;SDS011;114;48.260;10.988;2023-12-20T12:44:41;1.20;;;1.20;;
261;SDS011;114;48.260;10.988;2023-12-20T12:47:07;1.30;;;1.30;;
261;SDS011;114;48.260;10.988;2023-12-20T12:49:33;10.73;;;1.67;;
261;SDS011;114;48.260;10.988;2023-12-20T12:51:58;1.33;;;1.07;;
261;SDS011;114;48.260;10.988;2023-12-20T12:54:25;1.83;;;1.07;;
261;SDS011;114;48.260;10.988;2023-12-20T12:56:50;10.47;;;2.70;;
261;SDS011;114;48.260;10.988;2023-12-20T12:59:18;2.07;;;1.80;;
261;SDS011;114;48.260;10.988;2023-12-20T13:01:44;1.20;;;1.10;;
261;SDS011;114;48.260;10.988;2023-12-20T13:04:09;3.63;;;2.20;;
261;SDS011;114;48.260;10.988;2023-12-20T13:06:38;1.47;;;1.10;;
261;SDS011;114;48.260;10.988;2023-12-20T13:09:05;3.80;;;2.33;;
261;SDS011;114;48.260;10.988;2023-12-20T13:11:31;2.60;;;1.70;;
261;SDS011;114;48.260;10.988;2023-12-20T13:13:58;4.50;;;1.37;;
261;SDS011;114;48.260;10.988;2023-12-20T13:16:24;4.83;;;1.90;;
261;SDS011;114;48.260;10.988;2023-12-20T13:18:50;2.27;;;1.77;;
261;SDS011;114;48.260;10.988;2023-12-20T13:21:16;4.67;;;1.67;;
261;SDS011;114;48.260;10.988;2023-12-20T13:23:42;4.30;;;1.70;;
261;SDS011;114;48.260;10.988;2023-12-20T13:26:08;4.90;;;3.80;;
261;SDS011;114;48.260;10.988;2023-12-20T13:28:33;8.00;;;2.83;;
261;SDS011;114;48.260;10.988;2023-12-20T13:30:59;1.73;;;1.63;;
261;SDS011;114;48.260;10.988;2023-12-20T13:33:25;3.40;;;1.60;;
261;SDS011;114;48.260;10.988;2023-12-20T13:35:50;3.33;;;1.00;;
261;SDS011;114;48.260;10.988;2023-12-20T13:38:16;2.70;;;1.23;;
261;SDS011;114;48.260;10.988;2023-12-20T13:40:42;1.17;;;1.07;;
261;SDS011;114;48.260;10.988;2023-12-20T13:43:08;2.73;;;0.97;;
261;SDS011;114;48.260;10.988;2023-12-20T13:45:35;6.67;;;1.57;;
261;SDS011;114;48.260;10.988;2023-12-20T13:48:01;4.57;;;1.73;;
261;SDS011;114;48.260;10.988;2023-12-20T13:50:27;2.83;;;1.30;;
261;SDS011;114;48.260;10.988;2023-12-20T13:52:53;5.00;;;1.33;;
261;SDS011;114;48.260;10.988;2023-12-20T13:55:19;1.83;;;1.13;;
261;SDS011;114;48.260;10.988;2023-12-20T13:57:47;2.80;;;1.23;;
261;SDS011;114;48.260;10.988;2023-12-20T14:00:13;3.67;;;1.33;;
261;SDS011;114;48.260;10.988;2023-12-20T14:02:42;0.93;;;0.80;;
261;SDS011;114;48.260;10.988;2023-12-20T14:05:08;4.57;;;1.40;;
261;SDS011;114;48.260;10.988;2023-12-20T14:07:35;2.60;;;1.10;;
261;SDS011;114;48.260;10.988;2023-12-20T14:10:03;2.03;;;1.53;;
261;SDS011;114;48.260;10.988;2023-12-20T14:12:32;2.73;;;1.30;;
261;SDS011;114;48.260;10.988;2023-12-20T14:15:02;1.43;;;1.10;;
261;SDS011;114;48.260;10.988;2023-12-20T14:17:28;1.43;;;1.33;;
261;SDS011;114;48.260;10.988;2023-12-20T14:19:54;1.13;;;1.10;;
261;SDS011;114;48.260;10.988;2023-12-20T14:22:19;5.70;;;0.60;;
261;SDS011;114;48.260;10.988;2023-12-20T14:24:46;1.13;;;1.00;;
261;SDS011;114;48.260;10.988;2023-12-20T14:27:13;4.10;;;2.00;;
261;SDS011;114;48.260;10.988;2023-12-20T14:29:38;1.80;;;1.03;;
261;SDS011;114;48.260;10.988;2023-12-20T14:32:04;3.70;;;1.60;;
261;SDS011;114;48.260;10.988;2023-12-20T14:34:31;1.23;;;0.70;;
261;SDS011;114;48.260;10.988;2023-12-20T14:36:56;4.33;;;2.10;;
261;SDS011;114;48.260;10.988;2023-12-20T14:39:22;1.70;;;1.03;;
261;SDS011;114;48.260;10.988;2023-12-20T14:41:48;1.17;;;0.87;;
261;SDS011;114;48.260;10.988;2023-12-20T14:44:14;3.00;;;0.93;;
261;SDS011;114;48.260;10.988;2023-12-20T14:46:40;2.10;;;1.20;;
261;SDS011;114;48.260;10.988;2023-12-20T14:49:05;1.80;;;1.13;;
261;SDS011;114;48.260;10.988;2023-12-20T14:51:31;2.63;;;1.00;;
261;SDS011;114;48.260;10.988;2023-12-20T14:53:58;3.20;;;2.00;;
261;SDS011;114;48.260;10.988;2023-12-20T14:56:23;1.30;;;1.20;;
261;SDS011;114;48.260;10.988;2023-12-20T14:58:51;2.20;;;1.30;;
261;SDS011;114;48.260;10.988;2023-12-20T15:01:17;3.20;;;1.10;;
261;SDS011;114;48.260;10.988;2023-12-20T15:03:46;4.10;;;1.50;;
261;SDS011;114;48.260;10.988;2023-12-20T15:06:15;4.33;;;2.10;;
261;SDS011;114;48.260;10.988;2023-12-20T15:08:41;3.13;;;1.33;;
261;SDS011;114;48.260;10.988;2023-12-20T15:11:07;3.50;;;1.60;;
261;SDS011;114;48.260;10.988;2023-12-20T15:13:32;7.83;;;3.83;;
261;SDS011;114;48.260;10.988;2023-12-20T15:15:59;1.97;;;1.63;;
261;SDS011;114;48.260;10.988;2023-12-20T15:18:24;5.67;;;3.20;;
261;SDS011;114;48.260;10.988;2023-12-20T15:20:50;3.50;;;3.20;;
261;SDS011;114;48.260;10.988;2023-12-20T15:23:16;2.50;;;1.73;;
261;SDS011;114;48.260;10.988;2023-12-20T15:25:42;7.83;;;4.77;;
261;SDS011;114;48.260;10.988;2023-12-20T15:28:08;11.90;;;7.50;;
261;SDS011;114;48.260;10.988;2023-12-20T15:30:34;7.13;;;5.03;;
261;SDS011;114;48.260;10.988;2023-12-20T15:33:01;11.90;;;5.70;;
261;SDS011;114;48.260;10.988;2023-12-20T15:35:28;7.13;;;4.33;;